Observation data for Silverton on 01/11/2018      Previous  Date  Next       Current Mesonet Observations  Soil Data  Daily Summary Page  Observations in Plain Language
KSVS 110600Z 22021G26KT 09/M02 A2949 RMK A01 T00941016  RH  047%=      5-min Rain = 0
KSVS 110605Z 22020G26KT 09/M02 A2949 RMK A01 T00931016  RH  047%=      5-min Rain = 0
KSVS 110610Z 22020G26KT 09/M02 A2949 RMK A01 T00921016  RH  047%=      5-min Rain = 0
KSVS 110615Z 22020G28KT 09/M02 A2949 RMK A01 T00921016  RH  048%=      5-min Rain = 0
KSVS 110620Z 22020G25KT 09/M02 A2948 RMK A01 T00911015  RH  048%=      5-min Rain = 0
KSVS 110625Z 22020G25KT 09/M02 A2948 RMK A01 T00921015  RH  047%=      5-min Rain = 0
KSVS 110630Z 22018G24KT 09/M02 A2949 RMK A01 T00921015  RH  047%=      5-min Rain = 0
KSVS 110635Z 23019G28KT 09/M02 A2949 RMK A01 T00921015  RH  047%=      5-min Rain = 0
KSVS 110640Z 23019G25KT 09/M02 A2949 RMK A01 T00921015  RH  048%=      5-min Rain = 0
KSVS 110645Z 22017G22KT 09/M02 A2949 RMK A01 T00901015  RH  048%=      5-min Rain = 0
KSVS 110650Z 22017G23KT 09/M02 A2949 RMK A01 T00871015  RH  049%=      5-min Rain = 0
KSVS 110655Z 22017G23KT 08/M02 A2949 RMK A01 T00821015  RH  051%=      5-min Rain = 0
KSVS 110700Z 22016G22KT 08/M01 A2949 RMK A01 T00811014  RH  052%=      5-min Rain = 0
KSVS 110705Z 22018G24KT 08/M01 A2949 RMK A01 T00821013  RH  052%=      5-min Rain = 0
KSVS 110710Z 23017G24KT 08/M01 A2949 RMK A01 T00831013  RH  052%=      5-min Rain = 0
KSVS 110715Z 23018G27KT 08/M01 A2949 RMK A01 T00841012  RH  051%=      5-min Rain = 0
KSVS 110720Z 23021G26KT 09/M01 A2949 RMK A01 T00851012  RH  051%=      5-min Rain = 0
KSVS 110725Z 23021KT 08/M01 A2949 RMK A01 T00831013  RH  051%=      5-min Rain = 0
KSVS 110730Z 24021G28KT 08/M01 A2949 RMK A01 T00841014  RH  051%=      5-min Rain = 0
KSVS 110735Z 24022G27KT 09/M02 A2949 RMK A01 T00861015  RH  049%=      5-min Rain = 0
KSVS 110740Z 24020KT 09/M02 A2949 RMK A01 T00871016  RH  049%=      5-min Rain = 0
KSVS 110745Z 25021G27KT 09/M02 A2949 RMK A01 T00931018  RH  047%=      5-min Rain = 0
KSVS 110750Z 25020KT 09/M02 A2949 RMK A01 T00941018  RH  046%=      5-min Rain = 0
KSVS 110755Z 26021G29KT 10/M02 A2949 RMK A01 T00961018  RH  045%=      5-min Rain = 0
KSVS 110800Z 27022G30KT 10/M02 A2949 RMK A01 T00991018  RH  044%=      5-min Rain = 0
KSVS 110805Z 28018G23KT 10/M02 A295 RMK A01 T00961019  RH  045%=      5-min Rain = 0
KSVS 110810Z 29019G27KT 10/M02 A295 RMK A01 T00981018  RH  045%=      5-min Rain = 0
KSVS 110815Z 31021G30KT 10/M02 A295 RMK A01 T00991019  RH  044%=      5-min Rain = 0
KSVS 110820Z 32023G31KT 10/M02 A295 RMK A01 T01001021  RH  043%=      5-min Rain = 0
KSVS 110825Z 33031G40KT 10/M02 A2951 RMK A01 T01001023  RH  043%=      5-min Rain = 0
KSVS 110830Z 34032G39KT 10/M02 A2951 RMK A01 T00981019  RH  044%=      5-min Rain = 0
KSVS 110835Z 34031G42KT 10/M01 A2951 RMK A01 T00951011  RH  048%=      5-min Rain = 0
KSVS 110840Z 34030G39KT 09/M01 A2952 RMK A01 T00941008  RH  050%=      5-min Rain = 0
KSVS 110845Z 34029G39KT 09/M01 A2952 RMK A01 T00941005  RH  051%=      5-min Rain = 0
KSVS 110850Z 34028G39KT 09/M00 A2953 RMK A01 T00941001  RH  052%=      5-min Rain = 0
KSVS 110855Z 34027G38KT 09/01 A2954 RMK A01 T00930005  RH  054%=      5-min Rain = 0
KSVS 110900Z 34027G35KT 09/01 A2955 RMK A01 T00930012  RH  057%=      5-min Rain = 0
KSVS 110905Z 34025G35KT 09/02 A2955 RMK A01 T00930018  RH  060%=      5-min Rain = 0
KSVS 110910Z 33024G33KT 09/02 A2956 RMK A01 T00930021  RH  061%=      5-min Rain = 0
KSVS 110915Z 33030G41KT 09/03 A2956 RMK A01 T00940026  RH  063%=      5-min Rain = 0
KSVS 110920Z 33032G41KT 09/03 A2957 RMK A01 T00920027  RH  065%=      5-min Rain = 0
KSVS 110925Z 33027G39KT 09/03 A2958 RMK A01 T00880027  RH  066%=      5-min Rain = 0
KSVS 110930Z 33028G39KT 08/03 A2958 RMK A01 T00830027  RH  069%=      5-min Rain = 0
KSVS 110935Z 33025G34KT 08/03 A2959 RMK A01 T00790027  RH  070%=      5-min Rain = 0
KSVS 110940Z 33029G37KT 08/02 A2959 RMK A01 T00770024  RH  070%=      5-min Rain = 0
KSVS 110945Z 33030G41KT 07/02 A2959 RMK A01 T00740020  RH  069%=      5-min Rain = 0
KSVS 110950Z 34028G37KT 07/02 A296 RMK A01 T00730017  RH  069%=      5-min Rain = 0
KSVS 110955Z 34024G32KT 07/01 A2962 RMK A01 T00700014  RH  068%=      5-min Rain = 0
KSVS 111000Z 34027G36KT 07/01 A2963 RMK A01 T00660009  RH  068%=      5-min Rain = 0
KSVS 111005Z 35024G35KT 06/00 A2964 RMK A01 T00610004  RH  068%=      5-min Rain = 0
KSVS 111010Z 35024G33KT 06/00 A2965 RMK A01 T00580002  RH  068%=      5-min Rain = 0
KSVS 111015Z 35019G27KT 06/00 A2966 RMK A01 T00560002  RH  069%=      5-min Rain = 0
KSVS 111020Z 34022G35KT 06/00 A2966 RMK A01 T00550002  RH  069%=      5-min Rain = 0
KSVS 111025Z 33026G35KT 05/M00 A2967 RMK A01 T00481003  RH  070%=      5-min Rain = 0
KSVS 111030Z 33026G34KT 04/M01 A2967 RMK A01 T00421008  RH  071%=      5-min Rain = 0
KSVS 111035Z 34025G34KT 04/M01 A2968 RMK A01 T00361012  RH  072%=      5-min Rain = 0
KSVS 111040Z 34025G35KT 03/M01 A2968 RMK A01 T00331014  RH  072%=      5-min Rain = 0
KSVS 111045Z 35022G30KT 03/M02 A2969 RMK A01 T00311015  RH  073%=      5-min Rain = 0
KSVS 111050Z 34021G28KT 03/M02 A2969 RMK A01 T00291017  RH  073%=      5-min Rain = 0
KSVS 111055Z 34023G30KT 03/M02 A297 RMK A01 T00251021  RH  072%=      5-min Rain = 0
KSVS 111100Z 34025G34KT 02/M03 A297 RMK A01 T00211025  RH  072%=      5-min Rain = 0
KSVS 111105Z 34025G36KT 02/M03 A2971 RMK A01 T00211026  RH  072%=      5-min Rain = 0
KSVS 111110Z 34025G34KT 02/M03 A2971 RMK A01 T00211026  RH  072%=      5-min Rain = 0
KSVS 111115Z 34026G34KT 02/M03 A2971 RMK A01 T00211026  RH  072%=      5-min Rain = 0
KSVS 111120Z 34025G32KT 02/M02 A2972 RMK A01 T00191024  RH  074%=      5-min Rain = 0
KSVS 111125Z 34028G37KT 02/M02 A2973 RMK A01 T00181023  RH  075%=      5-min Rain = 0
KSVS 111130Z 33030G41KT 02/M03 A2974 RMK A01 T00181025  RH  074%=      5-min Rain = 0
KSVS 111135Z 33030G39KT 01/M03 A2975 RMK A01 T00131028  RH  075%=      5-min Rain = 0
KSVS 111140Z 34028G37KT 01/M03 A2976 RMK A01 T00131030  RH  074%=      5-min Rain = 0
KSVS 111145Z 33029G41KT 01/M03 A2976 RMK A01 T00091034  RH  074%=      5-min Rain = 0
KSVS 111150Z 34032G42KT 00/M04 A2976 RMK A01 T00041042  RH  072%=      5-min Rain = 0
KSVS 111155Z 34032G42KT 00/M04 A2977 RMK A01 T00041042  RH  072%=      5-min Rain = 0
KSVS 111200Z 34029G42KT 01/M04 A2977 RMK A01 T00061041  RH  072%=      5-min Rain = 0
KSVS 111205Z 33025G30KT 01/M04 A2977 RMK A01 T00071040  RH  072%=      5-min Rain = 0
KSVS 111210Z 33023G33KT 01/M04 A2978 RMK A01 T00081038  RH  072%=      5-min Rain = 0
KSVS 111215Z 33028G37KT 01/M04 A2978 RMK A01 T00071040  RH  072%=      5-min Rain = 0
KSVS 111220Z 33031G41KT 01/M04 A2978 RMK A01 T00051042  RH  072%=      5-min Rain = 0
KSVS 111225Z 33031G41KT 00/M04 A2979 RMK A01 T00031044  RH  071%=      5-min Rain = 0
KSVS 111230Z 33031G39KT 00/M05 A2979 RMK A01 T00021045  RH  072%=      5-min Rain = 0
KSVS 111235Z 33027G37KT 00/05 A298 RMK A01 T00000-46  RH  072%=      5-min Rain = 0
KSVS 111240Z 33027G37KT M00/M05 A2981 RMK A01 T10021048  RH  072%=      5-min Rain = 0
KSVS 111245Z 33027G37KT M00/M05 A2982 RMK A01 T10041050  RH  072%=      5-min Rain = 0
KSVS 111250Z 33027G35KT M01/M05 A2982 RMK A01 T10061052  RH  072%=      5-min Rain = 0
KSVS 111255Z 33026G35KT M01/M05 A2983 RMK A01 T10081054  RH  072%=      5-min Rain = 0
KSVS 111300Z 34025G33KT M01/M06 A2983 RMK A01 T10091055  RH  072%=      5-min Rain = 0
KSVS 111305Z 33026G37KT M01/M06 A2984 RMK A01 T10111057  RH  071%=      5-min Rain = 0
KSVS 111310Z 34032G41KT M01/M06 A2984 RMK A01 T10141060  RH  071%=      5-min Rain = 0
KSVS 111315Z 33030G42KT M01/M06 A2985 RMK A01 T10141061  RH  071%=      5-min Rain = 0
KSVS 111320Z 33033G43KT M02/M06 A2985 RMK A01 T10151063  RH  071%=      5-min Rain = 0
KSVS 111325Z 34031G43KT M02/M06 A2986 RMK A01 T10151064  RH  070%=      5-min Rain = 0
KSVS 111330Z 34029G36KT M02/M06 A2987 RMK A01 T10161064  RH  071%=      5-min Rain = 0
KSVS 111335Z 34030G43KT M02/M06 A2987 RMK A01 T10161063  RH  071%=      5-min Rain = 0
KSVS 111340Z 34029G40KT M02/M06 A2987 RMK A01 T10151062  RH  071%=      5-min Rain = 0
KSVS 111345Z 34026G34KT M02/M06 A2988 RMK A01 T10161062  RH  072%=      5-min Rain = 0
KSVS 111350Z 34025G32KT M02/M06 A2988 RMK A01 T10161062  RH  072%=      5-min Rain = 0
KSVS 111355Z 33029G36KT M02/M07 A2989 RMK A01 T10181067  RH  070%=      5-min Rain = 0
KSVS 111400Z 34029G42KT M02/M07 A2989 RMK A01 T10211072  RH  068%=      5-min Rain = 0
KSVS 111405Z 34029G38KT M02/M08 A2989 RMK A01 T10201075  RH  067%=      5-min Rain = 0
KSVS 111410Z 34027G34KT M02/M08 A299 RMK A01 T10211076  RH  067%=      5-min Rain = 0
KSVS 111415Z 35027G37KT M02/M08 A2991 RMK A01 T10211077  RH  066%=      5-min Rain = 0
KSVS 111420Z 34026G36KT M02/M08 A2991 RMK A01 T10201077  RH  066%=      5-min Rain = 0
KSVS 111425Z 35025G32KT M02/M08 A2991 RMK A01 T10201077  RH  066%=      5-min Rain = 0
KSVS 111430Z 35025G33KT M02/M08 A2992 RMK A01 T10211080  RH  065%=      5-min Rain = 0
KSVS 111435Z 35026G36KT M02/M08 A2992 RMK A01 T10211083  RH  064%=      5-min Rain = 0
KSVS 111440Z 35028G39KT M02/M08 A2993 RMK A01 T10211084  RH  063%=      5-min Rain = 0
KSVS 111445Z 35023G32KT M02/M09 A2993 RMK A01 T10221085  RH  063%=      5-min Rain = 0
KSVS 111450Z 35023G31KT M02/M09 A2994 RMK A01 T10211085  RH  062%=      5-min Rain = 0
KSVS 111455Z 35023G30KT M02/M09 A2994 RMK A01 T10181085  RH  061%=      5-min Rain = 0
KSVS 111500Z 35024G32KT M02/M09 A2995 RMK A01 T10191087  RH  060%=      5-min Rain = 0
KSVS 111505Z 34025G33KT M02/M09 A2996 RMK A01 T10221089  RH  061%=      5-min Rain = 0
KSVS 111510Z 34023G30KT M02/M09 A2996 RMK A01 T10221089  RH  061%=      5-min Rain = 0
KSVS 111515Z 35025G33KT M02/M09 A2997 RMK A01 T10191087  RH  060%=      5-min Rain = 0
KSVS 111520Z 35028G37KT M01/M09 A2997 RMK A01 T10121085  RH  058%=      5-min Rain = 0
KSVS 111525Z 34026G34KT M02/M09 A2998 RMK A01 T10151087  RH  059%=      5-min Rain = 0
KSVS 111530Z 34026G35KT M02/M09 A2999 RMK A01 T10151087  RH  059%=      5-min Rain = 0
KSVS 111535Z 34026G34KT M01/M09 A30 RMK A01 T10121086  RH  058%=      5-min Rain = 0
KSVS 111540Z 34025G34KT M01/M08 A3001 RMK A01 T10071084  RH  056%=      5-min Rain = 0
KSVS 111545Z 34028G36KT M01/M09 A3001 RMK A01 T10071086  RH  056%=      5-min Rain = 0
KSVS 111550Z 34026G34KT M00/M09 A3002 RMK A01 T10021086  RH  054%=      5-min Rain = 0
KSVS 111555Z 34025G30KT M01/M09 A3002 RMK A01 T10081089  RH  055%=      5-min Rain = 0
KSVS 111600Z 34024G32KT M01/M09 A3003 RMK A01 T10081089  RH  055%=      5-min Rain = 0
KSVS 111605Z 34027G34KT M00/M09 A3003 RMK A01 T10041089  RH  053%=      5-min Rain = 0
KSVS 111610Z 34024G35KT 00/M09 A3005 RMK A01 T00011089  RH  051%=      5-min Rain = 0
KSVS 111615Z 34026G36KT 00/09 A3005 RMK A01 T00-00-92  RH  050%=      5-min Rain = 0
KSVS 111620Z 34023G30KT 01/M09 A3005 RMK A01 T00061091  RH  049%=      5-min Rain = 0
KSVS 111625Z 34023G35KT 01/M09 A3006 RMK A01 T00061093  RH  048%=      5-min Rain = 0
KSVS 111630Z 34026G34KT 01/M09 A3006 RMK A01 T00061094  RH  048%=      5-min Rain = 0
KSVS 111635Z 34027G35KT 00/M10 A3006 RMK A01 T00031097  RH  048%=      5-min Rain = 0
KSVS 111640Z 34028G37KT 00/M10 A3006 RMK A01 T00011098  RH  048%=      5-min Rain = 0
KSVS 111645Z 34024G35KT 01/M10 A3007 RMK A01 T00051096  RH  047%=      5-min Rain = 0
KSVS 111650Z 34025G31KT 01/M10 A3007 RMK A01 T00081096  RH  046%=      5-min Rain = 0
KSVS 111655Z 34026G32KT 01/M10 A3007 RMK A01 T00111096  RH  045%=      5-min Rain = 0
KSVS 111700Z 34025G32KT 02/M10 A3008 RMK A01 T00151096  RH  044%=      5-min Rain = 0
KSVS 111705Z 34024G33KT 01/M10 A3009 RMK A01 T00111096  RH  045%=      5-min Rain = 0
KSVS 111710Z 34023G33KT 02/M09 A3009 RMK A01 T00191094  RH  043%=      5-min Rain = 0
KSVS 111715Z 34026G37KT 03/M10 A3009 RMK A01 T00251096  RH  041%=      5-min Rain = 0
KSVS 111720Z 34028G34KT 02/M10 A3009 RMK A01 T00231100  RH  040%=      5-min Rain = 0
KSVS 111725Z 35026G32KT 03/M10 A3009 RMK A01 T00271101  RH  039%=      5-min Rain = 0
KSVS 111730Z 34028G37KT 02/M10 A3009 RMK A01 T00231103  RH  039%=      5-min Rain = 0
KSVS 111735Z 34026G35KT 02/M10 A301 RMK A01 T00191104  RH  040%=      5-min Rain = 0
KSVS 111740Z 34025G34KT 02/M10 A301 RMK A01 T00201103  RH  040%=      5-min Rain = 0
KSVS 111745Z 35023G32KT 02/M11 A301 RMK A01 T00181105  RH  040%=      5-min Rain = 0
KSVS 111750Z 34022G32KT 02/M11 A3011 RMK A01 T00181105  RH  040%=      5-min Rain = 0
KSVS 111755Z 34024G30KT 01/M11 A3011 RMK A01 T00141107  RH  041%=      5-min Rain = 0
KSVS 111800Z 35022G29KT 01/M11 A3011 RMK A01 T00141106  RH  041%=      5-min Rain = 0
KSVS 111805Z 35021G27KT 02/M10 A3012 RMK A01 T00191102  RH  041%=      5-min Rain = 0
KSVS 111810Z 35023G31KT 03/M10 A3012 RMK A01 T00271102  RH  039%=      5-min Rain = 0
KSVS 111815Z 35021G29KT 03/M10 A3011 RMK A01 T00301099  RH  039%=      5-min Rain = 0
KSVS 111820Z 34021G30KT 04/M10 A3011 RMK A01 T00361097  RH  038%=      5-min Rain = 0
KSVS 111825Z 35021G27KT 04/M10 A3012 RMK A01 T00421096  RH  036%=      5-min Rain = 0
KSVS 111830Z 34022G28KT 04/M10 A3012 RMK A01 T00441095  RH  036%=      5-min Rain = 0
KSVS 111835Z 34023G30KT 04/M10 A3012 RMK A01 T00431095  RH  036%=      5-min Rain = 0
KSVS 111840Z 34023G32KT 05/M10 A3012 RMK A01 T00471095  RH  035%=      5-min Rain = 0
KSVS 111845Z 34025G30KT 04/M10 A3012 RMK A01 T00421096  RH  036%=      5-min Rain = 0
KSVS 111850Z 34026G34KT 04/M10 A3012 RMK A01 T00421097  RH  036%=      5-min Rain = 0
KSVS 111855Z 34025G31KT 04/M10 A3012 RMK A01 T00421096  RH  036%=      5-min Rain = 0
KSVS 111900Z 33026G34KT 04/M10 A3012 RMK A01 T00441098  RH  035%=      5-min Rain = 0
KSVS 111905Z 35022G29KT 05/M10 A3011 RMK A01 T00461098  RH  035%=      5-min Rain = 0
KSVS 111910Z 36025G34KT 05/M10 A3011 RMK A01 T00461101  RH  034%=      5-min Rain = 0
KSVS 111915Z 35022G31KT 05/M10 A3012 RMK A01 T00501100  RH  033%=      5-min Rain = 0
KSVS 111920Z 34025G33KT 05/M10 A3012 RMK A01 T00501097  RH  034%=      5-min Rain = 0
KSVS 111925Z 33024G31KT 05/M10 A3012 RMK A01 T00521096  RH  034%=      5-min Rain = 0
KSVS 111930Z 34025G31KT 05/M10 A3012 RMK A01 T00531098  RH  033%=      5-min Rain = 0
KSVS 111935Z 34024G31KT 05/M10 A3012 RMK A01 T00541099  RH  033%=      5-min Rain = 0
KSVS 111940Z 34022G29KT 06/M10 A3012 RMK A01 T00561099  RH  032%=      5-min Rain = 0
KSVS 111945Z 35021G29KT 06/M10 A3012 RMK A01 T00591100  RH  031%=      5-min Rain = 0
KSVS 111950Z 35023G29KT 06/M10 A3012 RMK A01 T00581102  RH  031%=      5-min Rain = 0
KSVS 111955Z 34021G27KT 06/M10 A3012 RMK A01 T00601099  RH  031%=      5-min Rain = 0
KSVS 112000Z 34022G27KT 06/M10 A3012 RMK A01 T00631099  RH  031%=      5-min Rain = 0
KSVS 112005Z 34023G28KT 06/M10 A3012 RMK A01 T00601101  RH  031%=      5-min Rain = 0
KSVS 112010Z 34022G31KT 06/M10 A3012 RMK A01 T00621101  RH  030%=      5-min Rain = 0
KSVS 112015Z 34022G29KT 06/M10 A3012 RMK A01 T00621101  RH  030%=      5-min Rain = 0
KSVS 112020Z 34023G34KT 07/M10 A3013 RMK A01 T00651103  RH  029%=      5-min Rain = 0
KSVS 112025Z 34023G30KT 06/M11 A3013 RMK A01 T00641105  RH  029%=      5-min Rain = 0
KSVS 112030Z 34022G28KT 06/M10 A3013 RMK A01 T00631104  RH  030%=      5-min Rain = 0
KSVS 112035Z 35019G25KT 06/M10 A3014 RMK A01 T00641104  RH  029%=      5-min Rain = 0
KSVS 112040Z 36020G27KT 06/M11 A3014 RMK A01 T00631105  RH  029%=      5-min Rain = 0
KSVS 112045Z 36018G24KT 07/M10 A3013 RMK A01 T00681103  RH  029%=      5-min Rain = 0
KSVS 112050Z 00020G26KT 07/M10 A3014 RMK A01 T00651103  RH  029%=      5-min Rain = 0
KSVS 112055Z 35020G26KT 07/M10 A3014 RMK A01 T00661101  RH  030%=      5-min Rain = 0
KSVS 112100Z 36018G24KT 07/M10 A3014 RMK A01 T00671099  RH  030%=      5-min Rain = 0
KSVS 112105Z 35020G25KT 07/M10 A3015 RMK A01 T00691099  RH  029%=      5-min Rain = 0
KSVS 112110Z 35018G26KT 07/M10 A3015 RMK A01 T00721098  RH  029%=      5-min Rain = 0
KSVS 112115Z 35019G24KT 07/M10 A3015 RMK A01 T00701100  RH  029%=      5-min Rain = 0
KSVS 112120Z 36019G25KT 07/M10 A3015 RMK A01 T00681099  RH  029%=      5-min Rain = 0
KSVS 112125Z 35017G24KT 07/M10 A3016 RMK A01 T00701100  RH  029%=      5-min Rain = 0
KSVS 112130Z 34017G24KT 07/M10 A3016 RMK A01 T00721098  RH  029%=      5-min Rain = 0
KSVS 112135Z 35018G26KT 07/M10 A3016 RMK A01 T00681100  RH  029%=      5-min Rain = 0
KSVS 112140Z 34015KT 07/M10 A3017 RMK A01 T00701098  RH  029%=      5-min Rain = 0
KSVS 112145Z 35016G23KT 07/M10 A3016 RMK A01 T00711099  RH  029%=      5-min Rain = 0
KSVS 112150Z 35016G23KT 07/M10 A3016 RMK A01 T00711101  RH  029%=      5-min Rain = 0
KSVS 112155Z 36014G21KT 07/M10 A3016 RMK A01 T00681100  RH  029%=      5-min Rain = 0
KSVS 112200Z 35014G20KT 07/M10 A3017 RMK A01 T00691099  RH  029%=      5-min Rain = 0
KSVS 112205Z 34020G27KT 07/M10 A3017 RMK A01 T00681102  RH  029%=      5-min Rain = 0
KSVS 112210Z 34018G23KT 07/M10 A3017 RMK A01 T00661101  RH  030%=      5-min Rain = 0
KSVS 112215Z 34018G24KT 07/M10 A3017 RMK A01 T00661102  RH  029%=      5-min Rain = 0
KSVS 112220Z 35017G23KT 07/M10 A3018 RMK A01 T00651103  RH  029%=      5-min Rain = 0
KSVS 112225Z 34018KT 06/M10 A3018 RMK A01 T00641102  RH  030%=      5-min Rain = 0
KSVS 112230Z 34017KT 06/M10 A3018 RMK A01 T00641100  RH  030%=      5-min Rain = 0
KSVS 112235Z 34016G23KT 06/M10 A3018 RMK A01 T00641100  RH  030%=      5-min Rain = 0
KSVS 112240Z 34015G20KT 06/M10 A3018 RMK A01 T00631101  RH  030%=      5-min Rain = 0
KSVS 112245Z 34013G18KT 06/M10 A3019 RMK A01 T00631102  RH  030%=      5-min Rain = 0
KSVS 112250Z 35013G18KT 06/M10 A3019 RMK A01 T00631103  RH  030%=      5-min Rain = 0
KSVS 112255Z 34015KT 06/M10 A3019 RMK A01 T00611104  RH  030%=      5-min Rain = 0
KSVS 112300Z 34015KT 06/M11 A302 RMK A01 T00591105  RH  030%=      5-min Rain = 0
KSVS 112305Z 34014KT 06/M11 A302 RMK A01 T00581105  RH  030%=      5-min Rain = 0
KSVS 112310Z 34012KT 06/M10 A302 RMK A01 T00561104  RH  031%=      5-min Rain = 0
KSVS 112315Z 34012KT 05/M10 A3021 RMK A01 T00541104  RH  031%=      5-min Rain = 0
KSVS 112320Z 34012KT 05/M11 A3021 RMK A01 T00531105  RH  031%=      5-min Rain = 0
KSVS 112325Z 34011KT 05/M11 A3021 RMK A01 T00511106  RH  032%=      5-min Rain = 0
KSVS 112330Z 34010KT 05/M11 A3021 RMK A01 T00481106  RH  032%=      5-min Rain = 0
KSVS 112335Z 34009KT 04/M11 A3021 RMK A01 T00441107  RH  033%=      5-min Rain = 0
KSVS 112340Z 33008KT 04/M11 A3021 RMK A01 T00391108  RH  034%=      5-min Rain = 0
KSVS 112345Z 33008KT 03/M11 A3021 RMK A01 T00341107  RH  035%=      5-min Rain = 0
KSVS 112350Z 33009KT 03/M10 A3022 RMK A01 T00311104  RH  037%=      5-min Rain = 0
KSVS 112355Z 33009KT 03/M10 A3022 RMK A01 T00291104  RH  037%=      5-min Rain = 0
KSVS 120000Z 32010KT 02/M11 A3022 RMK A01 T00231106  RH  039%=      5-min Rain = 0
KSVS 120005Z 32010KT 02/M11 A3022 RMK A01 T00181106  RH  040%=      5-min Rain = 0
KSVS 120010Z 33010KT 01/M11 A3022 RMK A01 T00111108  RH  041%=      5-min Rain = 0
KSVS 120015Z 33011KT 01/M11 A3022 RMK A01 T00051109  RH  043%=      5-min Rain = 0
KSVS 120020Z 33011KT 01/M11 A3023 RMK A01 T00051109  RH  043%=      5-min Rain = 0
KSVS 120025Z 34011KT 01/M11 A3023 RMK A01 T00051109  RH  043%=      5-min Rain = 0
KSVS 120030Z 33010KT 00/M11 A3023 RMK A01 T00041108  RH  043%=      5-min Rain = 0
KSVS 120035Z 33010KT 00/M11 A3023 RMK A01 T00011110  RH  043%=      5-min Rain = 0
KSVS 120040Z 33010KT M00/M11 A3023 RMK A01 T10011109  RH  044%=      5-min Rain = 0
KSVS 120045Z 33009KT M00/M11 A3024 RMK A01 T10041110  RH  045%=      5-min Rain = 0
KSVS 120050Z 32010KT M01/M11 A3024 RMK A01 T10091111  RH  047%=      5-min Rain = 0
KSVS 120055Z 32010KT M01/M11 A3024 RMK A01 T10111109  RH  048%=      5-min Rain = 0
KSVS 120100Z 32010KT M01/M11 A3024 RMK A01 T10081107  RH  048%=      5-min Rain = 0
KSVS 120105Z 32011KT M01/M11 A3024 RMK A01 T10091108  RH  048%=      5-min Rain = 0
KSVS 120110Z 33012KT M00/M10 A3024 RMK A01 T10021104  RH  047%=      5-min Rain = 0
KSVS 120115Z 33011KT 00/M11 A3024 RMK A01 T00021105  RH  045%=      5-min Rain = 0
KSVS 120120Z 33010KT 00/M11 A3025 RMK A01 T00011105  RH  045%=      5-min Rain = 0
KSVS 120125Z 32009KT M00/M11 A3025 RMK A01 T10031106  RH  046%=      5-min Rain = 0
KSVS 120130Z 31008KT M01/M11 A3025 RMK A01 T10091107  RH  048%=      5-min Rain = 0
KSVS 120135Z 32008KT M01/M11 A3025 RMK A01 T10141109  RH  049%=      5-min Rain = 0
KSVS 120140Z 32009KT M02/M11 A3026 RMK A01 T10171109  RH  050%=      5-min Rain = 0
KSVS 120145Z 33009KT M02/M11 A3026 RMK A01 T10181109  RH  050%=      5-min Rain = 0
KSVS 120150Z 33009KT M01/M11 A3026 RMK A01 T10141108  RH  049%=      5-min Rain = 0
KSVS 120155Z 33008KT M01/M11 A3026 RMK A01 T10111108  RH  048%=      5-min Rain = 0
KSVS 120200Z 31007KT M02/M11 A3027 RMK A01 T10161112  RH  049%=      5-min Rain = 0
KSVS 120205Z 31007KT M03/M11 A3027 RMK A01 T10251113  RH  052%=      5-min Rain = 0
KSVS 120210Z 32008KT M03/M12 A3027 RMK A01 T10271115  RH  051%=      5-min Rain = 0
KSVS 120215Z 33009KT M04/M12 A3027 RMK A01 T10371118  RH  054%=      5-min Rain = 0
KSVS 120220Z 33008KT M04/M12 A3027 RMK A01 T10401118  RH  055%=      5-min Rain = 0
KSVS 120225Z 34008KT M05/M12 A3027 RMK A01 T10461121  RH  056%=      5-min Rain = 0
KSVS 120230Z 35010KT M05/M12 A3027 RMK A01 T10491121  RH  058%=      5-min Rain = 0
KSVS 120235Z 35011KT M03/M11 A3026 RMK A01 T10281107  RH  055%=      5-min Rain = 0
KSVS 120240Z 35009KT M02/M11 A3027 RMK A01 T10181106  RH  052%=      5-min Rain = 0
KSVS 120245Z 34008KT M02/M11 A3027 RMK A01 T10161107  RH  051%=      5-min Rain = 0
KSVS 120250Z 35008KT M02/M11 A3027 RMK A01 T10191109  RH  051%=      5-min Rain = 0
KSVS 120255Z 35008KT M02/M11 A3027 RMK A01 T10181107  RH  051%=      5-min Rain = 0
KSVS 120300Z 34006KT M01/M11 A3027 RMK A01 T10141106  RH  050%=      5-min Rain = 0
KSVS 120305Z 31004KT M02/M11 A3028 RMK A01 T10191110  RH  051%=      5-min Rain = 0
KSVS 120310Z 32004KT M03/M11 A3028 RMK A01 T10341114  RH  054%=      5-min Rain = 0
KSVS 120315Z 32005KT M03/M11 A3028 RMK A01 T10341113  RH  055%=      5-min Rain = 0
KSVS 120320Z 34005KT M04/M11 A3027 RMK A01 T10361111  RH  057%=      5-min Rain = 0
KSVS 120325Z 00004KT M03/M11 A3027 RMK A01 T10341112  RH  055%=      5-min Rain = 0
KSVS 120330Z 36004KT M03/M11 A3027 RMK A01 T10291108  RH  055%=      5-min Rain = 0
KSVS 120335Z 01003KT M02/M11 A3027 RMK A01 T10221107  RH  053%=      5-min Rain = 0
KSVS 120340Z 01003KT M02/M11 A3027 RMK A01 T10201107  RH  052%=      5-min Rain = 0
KSVS 120345Z 00003KT M02/M11 A3027 RMK A01 T10181107  RH  052%=      5-min Rain = 0
KSVS 120350Z 35003KT M02/M11 A3028 RMK A01 T10151107  RH  050%=      5-min Rain = 0
KSVS 120355Z 33002KT M01/M11 A3028 RMK A01 T10141107  RH  050%=      5-min Rain = 0
KSVS 120400Z 33003KT M03/M11 A3028 RMK A01 T10261114  RH  052%=      5-min Rain = 0
KSVS 120405Z 34004KT M03/M12 A3028 RMK A01 T10301115  RH  053%=      5-min Rain = 0
KSVS 120410Z 35006KT M04/M12 A3028 RMK A01 T10371116  RH  055%=      5-min Rain = 0
KSVS 120415Z 36005KT M04/M12 A3028 RMK A01 T10411118  RH  055%=      5-min Rain = 0
KSVS 120420Z 01005KT M04/M12 A3028 RMK A01 T10421116  RH  057%=      5-min Rain = 0
KSVS 120425Z 01007KT M04/M12 A3028 RMK A01 T10371115  RH  055%=      5-min Rain = 0
KSVS 120430Z 01006KT M04/M12 A3028 RMK A01 T10421119  RH  056%=      5-min Rain = 0
KSVS 120435Z 01006KT M05/M12 A3028 RMK A01 T10511119  RH  060%=      5-min Rain = 0
KSVS 120440Z 01006KT M05/M12 A3028 RMK A01 T10541123  RH  059%=      5-min Rain = 0
KSVS 120445Z 01005KT M06/M12 A3028 RMK A01 T10551120  RH  061%=      5-min Rain = 0
KSVS 120450Z 01006KT M05/M12 A3028 RMK A01 T10511119  RH  060%=      5-min Rain = 0
KSVS 120455Z 01008KT M05/M12 A3028 RMK A01 T10461118  RH  058%=      5-min Rain = 0
KSVS 120500Z 01007KT M05/M12 A3028 RMK A01 T10521121  RH  059%=      5-min Rain = 0
KSVS 120505Z 01006KT M05/M12 A3028 RMK A01 T10531120  RH  060%=      5-min Rain = 0
KSVS 120510Z 01006KT M05/M12 A3028 RMK A01 T10471116  RH  060%=      5-min Rain = 0
KSVS 120515Z 01005KT M04/M11 A3028 RMK A01 T10411113  RH  058%=      5-min Rain = 0
KSVS 120520Z 35005KT M04/M11 A3028 RMK A01 T10401114  RH  057%=      5-min Rain = 0
KSVS 120525Z 35005KT M05/M12 A3028 RMK A01 T10461117  RH  059%=      5-min Rain = 0
KSVS 120530Z 00005KT M05/M12 A3028 RMK A01 T10481118  RH  059%=      5-min Rain = 0
KSVS 120535Z 01005KT M05/M12 A3028 RMK A01 T10491119  RH  059%=      5-min Rain = 0
KSVS 120540Z 01005KT M05/M12 A3028 RMK A01 T10541124  RH  059%=      5-min Rain = 0
KSVS 120545Z 01005KT M05/M12 A3028 RMK A01 T10471117  RH  059%=      5-min Rain = 0
KSVS 120550Z 02006KT M04/M11 A3027 RMK A01 T10391114  RH  057%=      5-min Rain = 0
KSVS 120555Z 01006KT M05/M13 A3027 RMK A01 T10521125  RH  057%=      5-min Rain = 0

Page generated in 0.0091 seconds.